Time;durP1;ratioP1;P1;durP2;ratioP2;P2;SDS_P1;SDS_P2;PMS_P1;PMS_P2;Temp;Humidity;BMP_temperature;BMP_pressure;BME280_temperature;BME280_humidity;BME280_pressure;Samples;Min_cycle;Max_cycle;Signal;HPM_P1;HPM_P2
2023/09/16 00:00:32;;;;;;;6.05;3.92;;;;;;;12.89;54.59;101651.47;5020474;28;20043;-71
2023/09/16 00:03:01;;;;;;;9.07;3.55;;;;;;;12.90;54.85;101643.53;5020951;28;20029;-74
2023/09/16 00:05:27;;;;;;;3.55;3.15;;;;;;;12.86;54.97;101639.31;5021488;28;20120;-71
2023/09/16 00:07:53;;;;;;;4.53;3.13;;;;;;;12.84;55.08;101637.69;5017111;28;20417;-71
2023/09/16 00:10:18;;;;;;;5.47;3.10;;;;;;;12.87;54.85;101637.56;5020560;28;20056;-71
2023/09/16 00:12:44;;;;;;;5.43;3.55;;;;;;;12.85;54.97;101628.91;5015992;28;21152;-71
2023/09/16 00:15:09;;;;;;;5.18;3.35;;;;;;;12.79;55.05;101626.50;5042098;28;20049;-70
2023/09/16 00:17:35;;;;;;;6.00;3.42;;;;;;;12.78;54.77;101625.66;5016391;28;20033;-71
2023/09/16 00:20:04;;;;;;;4.15;3.42;;;;;;;12.80;54.76;101626.44;5016999;28;20079;-71
2023/09/16 00:22:30;;;;;;;4.85;3.10;;;;;;;12.72;55.17;101623.25;5034084;28;20037;-71
2023/09/16 00:24:55;;;;;;;3.67;2.92;;;;;;;12.70;55.14;101625.06;5020864;28;20126;-73
2023/09/16 00:27:21;;;;;;;6.28;3.72;;;;;;;12.66;54.70;101624.28;5021002;28;20127;-71
2023/09/16 00:29:47;;;;;;;5.45;3.35;;;;;;;12.61;54.75;101623.63;5014374;28;20538;-70
2023/09/16 00:32:12;;;;;;;4.85;4.00;;;;;;;12.59;54.84;101617.56;5026923;28;20111;-70
2023/09/16 00:34:38;;;;;;;5.35;3.40;;;;;;;12.52;55.21;101623.97;5017142;28;20036;-71
2023/09/16 00:37:04;;;;;;;8.05;3.67;;;;;;;12.53;55.42;101620.41;5022103;28;20029;-73
2023/09/16 00:39:31;;;;;;;5.93;4.25;;;;;;;12.50;55.30;101620.53;5019398;28;20037;-71
2023/09/16 00:41:57;;;;;;;3.47;2.67;;;;;;;12.59;54.97;101617.56;5021485;28;20033;-69
2023/09/16 00:44:25;;;;;;;4.97;3.63;;;;;;;12.56;55.18;101617.69;5018754;28;20049;-71
2023/09/16 00:46:50;;;;;;;3.13;2.83;;;;;;;12.56;54.79;101617.69;5020914;28;20028;-75
2023/09/16 00:49:16;;;;;;;4.60;3.38;;;;;;;12.52;54.85;101616.09;5016676;28;20639;-73
2023/09/16 00:51:44;;;;;;;3.45;3.15;;;;;;;12.48;54.98;101609.25;5034419;28;20029;-71
2023/09/16 00:54:10;;;;;;;4.28;2.65;;;;;;;12.47;55.00;101604.94;5034367;28;21042;-71
2023/09/16 00:56:36;;;;;;;5.80;4.13;;;;;;;12.43;55.17;101613.81;5039036;28;20040;-73
2023/09/16 00:59:03;;;;;;;5.25;3.58;;;;;;;12.44;55.05;101608.47;5015081;28;20128;-69
2023/09/16 01:01:29;;;;;;;4.65;3.28;;;;;;;12.38;54.72;101600.00;5018056;28;20119;-68
2023/09/16 01:03:56;;;;;;;4.30;3.80;;;;;;;12.34;55.31;101595.78;5016754;28;20033;-69
2023/09/16 01:06:22;;;;;;;5.55;3.45;;;;;;;12.40;55.57;101591.19;5020017;28;20064;-66
2023/09/16 01:08:47;;;;;;;6.82;4.45;;;;;;;12.38;55.20;101593.00;5013727;28;20264;-66
2023/09/16 01:11:13;;;;;;;3.65;2.83;;;;;;;12.40;55.25;101591.19;5021439;28;20465;-66
2023/09/16 01:13:39;;;;;;;7.75;4.15;;;;;;;12.36;55.21;101586.09;5011247;28;20041;-66
2023/09/16 01:16:23;;;;;;;7.57;4.63;;;;;;;12.29;55.45;101588.09;5016599;28;21028;-69
2023/09/16 01:18:54;;;;;;;6.43;3.28;;;;;;;12.31;55.37;101594.09;5018805;28;20045;-70
2023/09/16 01:21:22;;;;;;;4.90;3.47;;;;;;;12.24;55.42;101583.00;5026347;28;20040;-70
2023/09/16 01:23:48;;;;;;;5.85;3.88;;;;;;;12.23;56.07;101593.56;5018864;28;20939;-73
2023/09/16 01:26:14;;;;;;;5.32;3.47;;;;;;;12.28;55.87;101595.06;5031982;28;20039;-71
2023/09/16 01:28:39;;;;;;;6.55;4.03;;;;;;;12.31;56.02;101590.63;5018151;28;20079;-71
2023/09/16 01:31:06;;;;;;;3.78;3.13;;;;;;;12.32;55.71;101587.97;5012048;28;20064;-71
2023/09/16 01:33:45;;;;;;;6.47;4.35;;;;;;;12.25;56.12;101584.72;5023391;28;20064;-73
2023/09/16 01:36:18;;;;;;;5.00;4.55;;;;;;;12.17;56.18;101588.50;5027971;28;20563;-71
2023/09/16 01:38:48;;;;;;;7.20;4.72;;;;;;;12.18;56.45;101591.09;5009713;28;20040;-68
2023/09/16 01:41:17;;;;;;;9.80;4.50;;;;;;;12.21;56.38;101584.88;5027800;28;20025;-71
2023/09/16 01:43:45;;;;;;;;;;;;;;;12.15;56.40;101583.31;5023061;28;20033;-71
2023/09/16 01:46:11;;;;;;;4.55;3.83;;;;;;;12.23;56.20;101573.44;5024599;28;20362;-70
2023/09/16 01:48:36;;;;;;;7.05;4.50;;;;;;;12.20;56.20;101581.41;5024865;28;20634;-71
2023/09/16 01:51:02;;;;;;;9.98;4.70;;;;;;;12.23;56.24;101581.28;5021037;28;20510;-71
2023/09/16 01:53:28;;;;;;;6.00;4.75;;;;;;;12.20;56.10;101583.16;5026922;28;20061;-71
2023/09/16 01:55:53;;;;;;;8.10;5.07;;;;;;;12.16;56.22;101571.94;5025301;28;20024;-69
2023/09/16 01:58:19;;;;;;;8.05;5.25;;;;;;;12.15;55.93;101570.22;5028697;28;20556;-70
2023/09/16 02:00:44;;;;;;;8.23;4.80;;;;;;;12.18;55.82;101577.09;5023929;28;20036;-72
2023/09/16 02:03:10;;;;;;;6.50;5.22;;;;;;;12.11;55.96;101573.00;5023000;28;20052;-71
2023/09/16 02:05:35;;;;;;;7.90;4.22;;;;;;;12.10;56.06;101573.94;5021014;28;20086;-71
2023/09/16 02:08:01;;;;;;;8.48;5.25;;;;;;;12.11;56.32;101573.00;5038576;28;20743;-70
2023/09/16 02:10:27;;;;;;;6.55;5.15;;;;;;;12.05;56.02;101568.84;5022043;28;20090;-71
2023/09/16 02:12:52;;;;;;;5.82;4.75;;;;;;;12.03;55.93;101575.91;5017599;28;20120;-71
2023/09/16 02:15:18;;;;;;;9.70;4.93;;;;;;;12.08;55.56;101563.50;5026145;28;20044;-71
2023/09/16 02:17:45;;;;;;;10.65;5.72;;;;;;;12.12;55.51;101575.56;5022884;28;20051;-69
2023/09/16 02:20:11;;;;;;;6.40;5.30;;;;;;;12.07;55.63;101578.38;5020602;28;20045;-68
2023/09/16 02:22:37;;;;;;;6.93;4.75;;;;;;;12.10;55.30;101574.78;5018720;28;20120;-67
2023/09/16 02:25:03;;;;;;;7.78;5.10;;;;;;;12.03;55.40;101573.28;5022604;28;20037;-68
2023/09/16 02:27:29;;;;;;;9.52;5.13;;;;;;;12.02;55.40;101575.06;5040493;28;20059;-68
2023/09/16 02:29:55;;;;;;;11.32;5.75;;;;;;;11.94;55.77;101576.22;5022912;28;20491;-68
2023/09/16 02:32:20;;;;;;;6.05;4.57;;;;;;;11.95;55.62;101572.69;5042632;28;20078;-70
2023/09/16 02:34:46;;;;;;;5.97;5.28;;;;;;;11.85;55.58;101570.38;5016388;28;21177;-68
2023/09/16 02:37:11;;;;;;;7.00;5.13;;;;;;;11.76;55.67;101570.69;5023875;28;20089;-68
2023/09/16 02:39:37;;;;;;;7.20;5.10;;;;;;;11.73;55.59;101573.41;5023935;28;20052;-68
2023/09/16 02:42:03;;;;;;;6.88;4.97;;;;;;;11.71;55.60;101575.22;5021530;28;20022;-69
2023/09/16 02:44:29;;;;;;;8.95;5.47;;;;;;;11.67;55.98;101581.47;5019634;28;20105;-69
2023/09/16 02:46:55;;;;;;;10.10;5.68;;;;;;;11.66;56.04;101579.72;5025020;28;20040;-69
2023/09/16 02:49:20;;;;;;;6.68;5.72;;;;;;;11.69;55.78;101582.28;5020117;28;20048;-71
2023/09/16 02:51:46;;;;;;;4.97;4.50;;;;;;;11.63;56.06;101585.94;5032387;28;20041;-68
2023/09/16 02:54:11;;;;;;;11.73;5.22;;;;;;;11.60;56.03;101570.34;5002978;28;20045;-68
2023/09/16 02:56:37;;;;;;;7.20;5.35;;;;;;;11.57;55.79;101583.50;5019615;28;20037;-69
2023/09/16 02:59:03;;;;;;;6.65;5.28;;;;;;;11.45;56.21;101573.47;5021330;28;20119;-69
2023/09/16 03:01:30;;;;;;;9.90;4.90;;;;;;;11.41;56.50;101577.91;5002281;28;20037;-68
2023/09/16 03:03:55;;;;;;;7.82;5.60;;;;;;;11.37;56.37;101578.91;5018249;28;20041;-68
2023/09/16 03:06:22;;;;;;;11.23;5.10;;;;;;;11.35;56.65;101578.16;5021275;28;20041;-68
2023/09/16 03:08:48;;;;;;;7.18;5.13;;;;;;;11.36;56.64;101564.13;5006125;28;20045;-67
2023/09/16 03:11:14;;;;;;;9.18;5.95;;;;;;;11.42;56.70;101563.94;5022142;28;20056;-67
2023/09/16 03:13:42;;;;;;;8.35;5.57;;;;;;;11.44;56.85;101561.25;5021756;28;20083;-73
2023/09/16 03:16:14;;;;;;;6.25;5.65;;;;;;;11.45;56.65;101557.75;5023200;28;20028;-69
2023/09/16 03:18:44;;;;;;;8.65;5.85;;;;;;;11.48;56.53;101557.63;5019711;28;20051;-69
2023/09/16 03:21:09;;;;;;;8.60;6.32;;;;;;;11.42;56.73;101556.09;5024447;28;20675;-69
2023/09/16 03:23:35;;;;;;;11.73;6.57;;;;;;;11.47;56.87;101558.56;5019493;28;20064;-68
2023/09/16 03:26:01;;;;;;;8.65;6.10;;;;;;;11.48;56.89;101556.78;5040767;28;20029;-69
2023/09/16 03:28:27;;;;;;;7.13;6.20;;;;;;;11.50;56.79;101557.59;5033718;28;20510;-69
2023/09/16 03:30:53;;;;;;;9.65;7.22;;;;;;;11.56;56.68;101554.78;5024870;28;20032;-68
2023/09/16 03:33:21;;;;;;;10.23;4.95;;;;;;;11.56;56.50;101552.16;5039408;28;20040;-69
2023/09/16 03:35:49;;;;;;;7.20;5.72;;;;;;;11.56;55.83;101552.16;5007669;28;20128;-68
2023/09/16 03:38:16;;;;;;;6.85;5.32;;;;;;;11.51;56.33;101547.09;5009185;28;20792;-69
2023/09/16 03:40:42;;;;;;;8.40;5.38;;;;;;;11.45;56.07;101548.13;5013414;28;20029;-68
2023/09/16 03:43:08;;;;;;;6.80;5.03;;;;;;;11.48;56.11;101541.94;5014958;28;20576;-68
2023/09/16 03:45:36;;;;;;;7.35;5.10;;;;;;;11.43;55.77;101539.47;5024878;28;20045;-69
2023/09/16 03:48:02;;;;;;;7.05;4.90;;;;;;;11.46;55.73;101544.63;5013757;28;20032;-67
2023/09/16 03:50:28;;;;;;;7.35;4.80;;;;;;;11.37;55.60;101539.66;5037287;28;20040;-68
2023/09/16 03:52:54;;;;;;;8.50;5.30;;;;;;;11.26;56.02;101539.16;5021891;28;20033;-68
2023/09/16 03:55:19;;;;;;;7.15;5.03;;;;;;;11.25;56.16;101537.47;5036472;28;20639;-68
2023/09/16 03:57:45;;;;;;;6.32;4.88;;;;;;;11.25;56.10;101540.06;5032145;28;20108;-68
2023/09/16 04:00:13;;;;;;;7.00;4.68;;;;;;;11.18;56.08;101533.34;5020143;28;20037;-69
2023/09/16 04:02:38;;;;;;;7.30;5.22;;;;;;;11.03;56.28;101530.28;5003668;28;20025;-69
2023/09/16 04:05:05;;;;;;;12.32;5.05;;;;;;;10.97;56.44;101527.88;5021718;28;20044;-68
2023/09/16 04:07:31;;;;;;;9.90;5.55;;;;;;;10.89;57.06;101529.88;5020379;28;20178;-69
2023/09/16 04:09:57;;;;;;;6.68;5.93;;;;;;;10.87;57.21;101531.69;5023641;28;20052;-69
2023/09/16 04:12:22;;;;;;;7.28;5.68;;;;;;;10.85;57.38;101520.41;5015820;28;20510;-71
2023/09/16 04:14:50;;;;;;;9.57;6.22;;;;;;;10.99;57.61;101522.59;5015279;28;20098;-70
2023/09/16 04:17:16;;;;;;;15.57;7.20;;;;;;;11.09;57.75;101528.41;5018806;28;20056;-69
2023/09/16 04:19:41;;;;;;;8.00;7.18;;;;;;;11.13;57.66;101530.00;5018328;28;20072;-69
2023/09/16 04:22:07;;;;;;;9.75;7.32;;;;;;;11.13;57.51;101541.34;5017301;28;20042;-71
2023/09/16 04:24:32;;;;;;;10.85;6.75;;;;;;;11.12;57.54;101529.13;5023677;28;20483;-70
2023/09/16 04:26:58;;;;;;;10.52;7.70;;;;;;;11.19;57.75;101524.56;5026644;28;20035;-70
2023/09/16 04:29:24;;;;;;;10.65;8.15;;;;;;;11.28;57.38;101518.19;5006083;28;20041;-70
2023/09/16 04:31:51;;;;;;;10.80;7.28;;;;;;;11.37;57.40;101521.34;5019339;28;20090;-69
2023/09/16 04:34:17;;;;;;;9.88;7.13;;;;;;;11.41;57.08;101520.34;5016666;28;20046;-69
2023/09/16 04:36:43;;;;;;;11.93;7.20;;;;;;;11.53;57.02;101518.22;5022598;28;20129;-69
2023/09/16 04:39:09;;;;;;;10.75;7.40;;;;;;;11.58;56.81;101511.09;4999206;28;20048;-69
2023/09/16 04:41:35;;;;;;;11.60;6.53;;;;;;;11.61;56.78;101517.06;5040038;28;20495;-69
2023/09/16 04:44:03;;;;;;;10.00;6.50;;;;;;;11.71;56.54;101521.97;5037076;28;20040;-68
2023/09/16 04:46:30;;;;;;;10.48;5.90;;;;;;;11.88;56.24;101515.25;5022610;28;20029;-69
2023/09/16 04:49:02;;;;;;;16.20;7.60;;;;;;;11.99;55.48;101516.66;5031985;28;20040;-69
2023/09/16 04:51:29;;;;;;;8.35;6.32;;;;;;;11.93;55.98;101529.97;5023031;28;20621;-69
2023/09/16 04:53:56;;;;;;;9.27;6.50;;;;;;;11.87;56.30;101539.75;5021487;28;20057;-68
2023/09/16 04:56:23;;;;;;;9.52;6.75;;;;;;;12.11;55.74;101526.72;5038478;28;20056;-70
2023/09/16 04:58:53;;;;;;;12.68;7.47;;;;;;;12.02;55.50;101537.50;5016262;28;20047;-70
2023/09/16 05:01:19;;;;;;;10.38;6.90;;;;;;;12.14;54.85;101539.69;5028118;28;20061;-69
2023/09/16 05:03:44;;;;;;;10.43;6.68;;;;;;;12.02;55.19;101527.03;5020916;28;20123;-70
2023/09/16 05:06:10;;;;;;;9.93;6.85;;;;;;;12.11;54.62;101525.84;5004674;28;20037;-69
2023/09/16 05:08:37;;;;;;;7.75;6.20;;;;;;;12.05;54.66;101524.31;5025364;28;20807;-72
2023/09/16 05:11:04;;;;;;;7.10;5.93;;;;;;;12.04;55.07;101533.94;5027520;28;20029;-69
2023/09/16 05:13:37;;;;;;;9.02;5.90;;;;;;;11.95;55.70;101549.09;5020155;28;20069;-70
2023/09/16 05:16:03;;;;;;;7.45;5.78;;;;;;;11.99;55.33;101543.72;5026309;28;20122;-71
2023/09/16 05:18:29;;;;;;;7.97;6.25;;;;;;;12.01;55.27;101538.41;5007213;28;20109;-68
2023/09/16 05:20:55;;;;;;;7.35;6.63;;;;;;;12.01;55.17;101535.81;5019740;28;20075;-68
2023/09/16 05:23:23;;;;;;;8.73;5.85;;;;;;;12.07;55.66;101532.97;5005634;28;20068;-67
2023/09/16 05:25:49;;;;;;;6.40;5.72;;;;;;;12.26;54.61;101541.84;5034651;28;20568;-72
2023/09/16 05:28:22;;;;;;;6.15;4.60;;;;;;;12.37;54.58;101535.38;5025328;28;20537;-71
2023/09/16 05:30:48;;;;;;;8.43;6.78;;;;;;;12.25;54.26;101532.28;5043130;28;20037;-71
2023/09/16 05:33:17;;;;;;;9.82;6.40;;;;;;;12.16;54.44;101529.16;5037823;28;20084;-70
2023/09/16 05:35:43;;;;;;;8.93;6.68;;;;;;;12.11;54.58;101525.84;5037019;28;20029;-71
2023/09/16 05:38:09;;;;;;;7.68;6.40;;;;;;;12.10;54.74;101525.00;5025363;28;20025;-72
2023/09/16 05:40:36;;;;;;;9.32;6.00;;;;;;;12.06;54.78;101523.38;5023038;28;20573;-72
2023/09/16 05:43:02;;;;;;;7.35;6.15;;;;;;;12.03;55.12;101515.66;5020630;28;20021;-74
2023/09/16 05:45:31;;;;;;;9.00;6.85;;;;;;;12.01;55.07;101517.47;5023295;28;20024;-72
2023/09/16 05:48:02;;;;;;;9.15;6.18;;;;;;;12.09;55.01;101518.06;4995926;28;20025;-73
2023/09/16 05:50:30;;;;;;;7.82;5.80;;;;;;;12.18;54.91;101522.97;5019451;28;20025;-73
2023/09/16 05:52:57;;;;;;;7.53;5.55;;;;;;;12.25;54.92;101518.34;5000994;28;20228;-70
2023/09/16 05:55:23;;;;;;;8.60;6.15;;;;;;;12.36;54.54;101521.41;5021699;28;20041;-70
2023/09/16 05:57:49;;;;;;;7.25;5.70;;;;;;;12.42;54.13;101515.06;5019091;28;20033;-70
2023/09/16 06:00:16;;;;;;;10.23;5.90;;;;;;;12.56;53.70;101523.28;5035054;28;20044;-70
2023/09/16 06:02:42;;;;;;;8.68;6.15;;;;;;;13.04;53.15;101519.69;5020097;28;20021;-71
2023/09/16 06:05:09;;;;;;;7.25;5.38;;;;;;;14.46;50.78;101525.03;5021708;28;20248;-70
2023/09/16 06:07:41;;;;;;;7.18;5.53;;;;;;;15.98;45.67;101517.56;5009798;28;20502;-70
2023/09/16 06:10:09;;;;;;;6.18;4.65;;;;;;;16.97;43.91;101522.78;5007728;28;20137;-70
2023/09/16 06:12:35;;;;;;;7.60;4.82;;;;;;;18.05;40.42;101519.94;5040248;28;20561;-70
2023/09/16 06:15:01;;;;;;;9.52;4.75;;;;;;;18.86;38.72;101514.00;5007253;28;20037;-73
2023/09/16 06:17:27;;;;;;;6.97;4.43;;;;;;;19.41;36.53;101515.66;5042866;28;20122;-72
2023/09/16 06:19:55;;;;;;;5.60;4.78;;;;;;;19.88;36.85;101519.53;5019492;28;20461;-74
2023/09/16 06:22:23;;;;;;;5.68;4.78;;;;;;;20.20;35.38;101515.59;5010259;28;20083;-73
2023/09/16 06:24:52;;;;;;;7.50;4.88;;;;;;;20.21;35.97;101514.63;5035848;28;20048;-72
2023/09/16 06:27:22;;;;;;;5.47;3.58;;;;;;;20.26;34.85;101515.16;5009418;28;20418;-71
2023/09/16 06:29:48;;;;;;;5.32;3.83;;;;;;;20.71;34.56;101518.13;5022665;28;20132;-71
2023/09/16 06:32:15;;;;;;;7.38;3.65;;;;;;;21.60;32.62;101513.28;5023102;28;20033;-70
2023/09/16 06:34:43;;;;;;;8.50;3.55;;;;;;;21.92;31.77;101521.44;5024024;28;20037;-73
2023/09/16 06:37:09;;;;;;;4.38;3.47;;;;;;;22.03;32.70;101509.97;5020955;28;20029;-74
2023/09/16 06:39:36;;;;;;;5.63;3.78;;;;;;;22.06;31.86;101515.88;5019791;28;20036;-70
2023/09/16 06:42:04;;;;;;;4.18;3.47;;;;;;;22.32;31.57;101513.84;5041529;28;20112;-73
2023/09/16 06:44:36;;;;;;;5.22;3.50;;;;;;;22.79;30.65;101511.81;5019966;28;20036;-70
2023/09/16 06:47:02;;;;;;;5.53;3.58;;;;;;;23.26;30.10;101511.50;5005986;28;20040;-70
2023/09/16 06:49:28;;;;;;;5.35;3.80;;;;;;;23.28;30.37;101509.56;5020337;28;20048;-71
2023/09/16 06:51:53;;;;;;;6.68;3.75;;;;;;;23.31;30.25;101508.47;5021129;28;21023;-70
2023/09/16 06:54:19;;;;;;;10.30;4.03;;;;;;;23.65;30.37;101506.41;5002314;28;20049;-72
2023/09/16 06:56:45;;;;;;;5.85;4.05;;;;;;;24.09;29.43;101504.41;5039692;28;20226;-73
2023/09/16 06:59:11;;;;;;;4.43;3.25;;;;;;;24.38;29.13;101506.31;5005161;28;20041;-73
2023/09/16 07:01:38;;;;;;;3.85;3.15;;;;;;;24.45;28.90;101510.16;5040045;28;20523;-73
2023/09/16 07:04:04;;;;;;;4.32;3.83;;;;;;;24.35;28.01;101509.28;5011462;28;20450;-73
2023/09/16 07:06:30;;;;;;;4.32;3.25;;;;;;;24.31;28.65;101503.34;5021393;28;20039;-73
2023/09/16 07:08:56;;;;;;;4.95;3.30;;;;;;;24.06;29.13;101507.34;5025555;28;20087;-75
2023/09/16 07:11:22;;;;;;;9.35;3.42;;;;;;;23.72;30.12;101507.59;5023232;28;20065;-73
2023/09/16 07:13:47;;;;;;;10.65;3.40;;;;;;;24.47;29.25;101516.19;5021597;28;20574;-73
2023/09/16 07:16:13;;;;;;;4.85;3.38;;;;;;;25.21;27.93;101513.03;5022952;28;20029;-71
2023/09/16 07:18:39;;;;;;;5.88;3.30;;;;;;;25.42;27.58;101512.00;5018116;28;20128;-72
2023/09/16 07:21:05;;;;;;;4.72;3.53;;;;;;;25.41;27.77;101510.31;5036484;28;20041;-72
2023/09/16 07:23:31;;;;;;;3.25;2.65;;;;;;;25.59;27.10;101505.94;5020877;28;20041;-72
2023/09/16 07:25:58;;;;;;;6.18;4.20;;;;;;;26.02;26.83;101506.31;5022029;28;20177;-68
2023/09/16 07:28:25;;;;;;;5.45;2.53;;;;;;;26.51;25.36;101501.56;5019680;28;20510;-67
2023/09/16 07:30:50;;;;;;;3.58;3.00;;;;;;;26.78;25.91;101502.53;5038788;28;20029;-69
2023/09/16 07:33:16;;;;;;;3.75;3.42;;;;;;;26.26;25.90;101503.97;5020528;28;21486;-68
2023/09/16 07:35:41;;;;;;;3.42;3.10;;;;;;;26.03;26.59;101508.03;5019168;28;20475;-68
2023/09/16 07:38:08;;;;;;;5.13;3.45;;;;;;;26.31;25.84;101500.00;5020830;28;20148;-68
2023/09/16 07:40:35;;;;;;;4.20;3.70;;;;;;;25.81;26.08;101502.06;5036299;28;20064;-68
2023/09/16 07:43:01;;;;;;;4.68;3.00;;;;;;;26.20;26.72;101496.56;5006784;28;20033;-67
2023/09/16 07:45:27;;;;;;;6.47;3.78;;;;;;;26.67;25.36;101496.41;5018603;28;20118;-68
2023/09/16 07:47:53;;;;;;;6.63;3.45;;;;;;;26.46;25.83;101506.53;5022636;28;20036;-67
2023/09/16 07:50:18;;;;;;;4.40;3.45;;;;;;;25.66;27.64;101506.19;5020162;28;20092;-67
2023/09/16 07:52:44;;;;;;;3.83;3.10;;;;;;;26.40;26.22;101509.81;5016874;28;20540;-68
2023/09/16 07:55:10;;;;;;;4.00;3.25;;;;;;;27.47;25.13;101509.81;5020142;28;20396;-68
2023/09/16 07:57:36;;;;;;;3.50;2.28;;;;;;;28.32;24.96;101503.69;5021142;28;20036;-67
2023/09/16 08:00:07;;;;;;;3.35;2.80;;;;;;;28.42;24.51;101508.94;5016256;28;20111;-68
2023/09/16 08:02:37;;;;;;;3.65;2.83;;;;;;;28.56;23.43;101513.66;5035375;28;20873;-67
2023/09/16 08:05:03;;;;;;;4.78;3.30;;;;;;;29.27;22.90;101517.63;5019483;28;20040;-67
2023/09/16 08:07:29;;;;;;;6.95;3.22;;;;;;;29.68;22.16;101519.41;5019796;28;20064;-68
2023/09/16 08:09:54;;;;;;;4.72;3.35;;;;;;;29.36;22.52;101521.13;5017700;28;20136;-68
2023/09/16 08:12:23;;;;;;;4.15;3.53;;;;;;;29.26;22.90;101517.78;5017865;28;20747;-67
2023/09/16 08:14:49;;;;;;;4.45;2.85;;;;;;;27.89;24.62;101519.78;5018268;28;20084;-68
2023/09/16 08:17:15;;;;;;;3.80;3.15;;;;;;;26.97;25.18;101523.81;5018134;28;20068;-67
2023/09/16 08:19:40;;;;;;;4.20;3.47;;;;;;;26.88;25.67;101524.75;5014127;28;20133;-68
2023/09/16 08:22:06;;;;;;;8.15;3.50;;;;;;;26.44;26.62;101521.94;5015135;28;20029;-67
2023/09/16 08:24:31;;;;;;;6.03;3.58;;;;;;;26.97;26.14;101529.19;5031716;28;20048;-67
2023/09/16 08:26:57;;;;;;;2.83;2.38;;;;;;;27.35;26.26;101521.81;5016777;28;20038;-68
2023/09/16 08:29:22;;;;;;;7.22;3.25;;;;;;;27.78;25.70;101524.63;5003088;28;20064;-69
2023/09/16 08:31:48;;;;;;;6.90;3.55;;;;;;;27.52;26.38;101533.50;5016521;28;20033;-66
2023/09/16 08:34:13;;;;;;;4.50;3.92;;;;;;;27.45;25.97;101527.94;5017595;28;20076;-69
2023/09/16 08:36:39;;;;;;;5.53;3.22;;;;;;;26.88;26.45;101527.44;5018688;28;20069;-69
2023/09/16 08:39:04;;;;;;;4.13;3.25;;;;;;;26.40;27.05;101533.94;5000510;28;20199;-69
2023/09/16 08:42:04;;;;;;;4.45;2.80;;;;;;;26.25;27.54;101518.38;5018798;28;20025;-69
2023/09/16 08:44:35;;;;;;;10.40;3.70;;;;;;;26.50;27.07;101526.69;5020295;28;20063;-69
2023/09/16 08:47:09;;;;;;;5.90;4.13;;;;;;;25.74;28.22;101529.56;5017730;28;20041;-68
2023/09/16 08:49:40;;;;;;;6.20;2.75;;;;;;;25.53;28.65;101533.28;5021392;28;20051;-67
2023/09/16 08:52:09;;;;;;;3.60;2.97;;;;;;;25.35;29.49;101535.84;5018959;28;20040;-69
2023/09/16 08:54:37;;;;;;;4.05;3.22;;;;;;;24.87;30.37;101530.47;5017066;28;20861;-67
2023/09/16 08:57:03;;;;;;;3.83;3.33;;;;;;;24.43;31.63;101522.78;5017297;28;20064;-70
2023/09/16 08:59:30;;;;;;;5.22;3.47;;;;;;;23.89;30.98;101524.00;5016942;28;20049;-69
2023/09/16 09:01:56;;;;;;;3.75;2.78;;;;;;;23.86;32.37;101534.94;5019251;28;20041;-69
2023/09/16 09:04:23;;;;;;;6.93;3.88;;;;;;;23.49;31.62;101527.38;5020961;28;20831;-67
2023/09/16 09:06:49;;;;;;;7.22;3.92;;;;;;;23.64;31.10;101535.91;5021287;28;20038;-66
2023/09/16 09:09:15;;;;;;;4.70;3.22;;;;;;;23.80;31.41;101534.44;5022348;28;20055;-66
2023/09/16 09:11:41;;;;;;;5.90;3.88;;;;;;;23.82;31.23;101535.16;5020832;28;20934;-66
2023/09/16 09:14:10;;;;;;;4.97;3.17;;;;;;;23.95;31.24;101534.16;5019675;28;21365;-66
2023/09/16 09:16:40;;;;;;;5.93;3.72;;;;;;;23.85;30.92;101546.56;5035763;28;20355;-67
2023/09/16 09:19:06;;;;;;;4.53;2.40;;;;;;;23.28;33.73;101540.75;5018747;28;20053;-66
2023/09/16 09:21:32;;;;;;;7.65;3.55;;;;;;;23.25;32.35;101552.44;5020665;28;20043;-66
2023/09/16 09:23:58;;;;;;;3.75;3.25;;;;;;;23.40;32.18;101551.19;5021145;28;20132;-66
2023/09/16 09:26:24;;;;;;;5.45;2.92;;;;;;;24.03;33.15;101544.97;5035175;28;20394;-66
2023/09/16 09:28:49;;;;;;;4.18;3.03;;;;;;;24.28;31.01;101545.50;5018464;28;20052;-66
2023/09/16 09:31:15;;;;;;;3.47;3.17;;;;;;;23.38;33.00;101547.81;5020067;28;20162;-66
2023/09/16 09:33:41;;;;;;;3.65;3.35;;;;;;;22.35;33.91;101547.34;5019812;28;21559;-66
2023/09/16 09:36:11;;;;;;;6.95;2.90;;;;;;;22.74;34.58;101547.78;5020920;28;20037;-65
2023/09/16 09:38:42;;;;;;;5.22;3.20;;;;;;;22.65;34.44;101549.38;5021248;28;20041;-66
2023/09/16 09:41:07;;;;;;;5.45;3.53;;;;;;;22.26;35.40;101548.09;5021172;28;20036;-65
2023/09/16 09:43:33;;;;;;;4.47;3.25;;;;;;;22.72;34.90;101547.09;5018729;28;20068;-67
2023/09/16 09:45:59;;;;;;;4.70;3.28;;;;;;;22.90;35.59;101545.56;5018511;28;20047;-68
2023/09/16 09:48:25;;;;;;;5.97;3.33;;;;;;;23.13;34.26;101549.00;5018682;28;20059;-66
2023/09/16 09:50:51;;;;;;;6.68;3.80;;;;;;;22.70;35.23;101546.38;5018740;28;20067;-66
2023/09/16 09:53:17;;;;;;;3.88;3.17;;;;;;;22.56;35.99;101544.78;5019753;28;20053;-67
2023/09/16 09:55:43;;;;;;;7.18;3.65;;;;;;;22.84;34.58;101540.75;5018917;28;20118;-68
2023/09/16 09:58:10;;;;;;;3.65;3.22;;;;;;;22.88;34.74;101539.53;5033869;28;21526;-68
2023/09/16 10:00:35;;;;;;;4.53;3.95;;;;;;;22.20;36.41;101528.09;5018467;28;20159;-68
2023/09/16 10:03:01;;;;;;;5.55;3.92;;;;;;;22.23;36.20;101529.72;5033079;28;20215;-68
2023/09/16 10:05:26;;;;;;;4.00;3.60;;;;;;;21.99;36.53;101530.63;5020338;28;20331;-68
2023/09/16 10:07:53;;;;;;;4.32;3.92;;;;;;;21.65;37.38;101529.75;5018832;28;20106;-68
2023/09/16 10:10:20;;;;;;;4.82;3.42;;;;;;;21.65;36.96;101525.28;5015719;28;20052;-68
2023/09/16 10:13:04;;;;;;;3.92;3.38;;;;;;;21.53;38.54;101531.53;5023816;28;20029;-68
2023/09/16 10:15:36;;;;;;;4.20;3.72;;;;;;;21.64;37.56;101526.22;5040983;28;20116;-68
2023/09/16 10:18:03;;;;;;;5.10;3.88;;;;;;;21.47;37.16;101537.31;5022124;28;20044;-68
2023/09/16 10:20:31;;;;;;;3.65;2.40;;;;;;;21.72;38.21;101523.84;5021036;28;20037;-68
2023/09/16 10:22:58;;;;;;;6.68;3.28;;;;;;;22.21;36.72;101518.34;5014346;28;20353;-67
2023/09/16 10:25:24;;;;;;;6.63;3.15;;;;;;;22.27;36.64;101521.34;5020897;28;20036;-67
2023/09/16 10:28:06;;;;;;;4.18;3.55;;;;;;;22.41;36.24;101517.56;5020184;28;20043;-68
2023/09/16 10:30:33;;;;;;;4.47;2.50;;;;;;;22.42;35.89;101513.94;5025181;28;20025;-67
2023/09/16 10:33:06;;;;;;;5.75;3.15;;;;;;;22.70;34.94;101504.56;5024046;28;20048;-68
2023/09/16 10:35:34;;;;;;;5.72;2.53;;;;;;;22.93;34.18;101500.00;5023734;28;20056;-67
2023/09/16 10:38:01;;;;;;;3.97;2.42;;;;;;;23.44;32.59;101498.44;5019020;28;20483;-67
2023/09/16 10:40:27;;;;;;;6.22;2.80;;;;;;;23.29;34.07;101500.59;5021583;28;20082;-68
2023/09/16 10:42:53;;;;;;;3.83;2.75;;;;;;;23.55;34.90;101494.88;5016543;28;20021;-67
2023/09/16 10:45:19;;;;;;;4.28;2.42;;;;;;;23.53;33.94;101496.81;5025963;28;20033;-68
2023/09/16 10:47:46;;;;;;;4.13;3.30;;;;;;;23.25;33.45;101495.59;5023471;28;20689;-67
2023/09/16 10:50:12;;;;;;;2.90;2.60;;;;;;;23.17;33.02;101502.44;5020935;28;20128;-68
2023/09/16 10:52:48;;;;;;;4.25;2.50;;;;;;;23.56;32.75;101501.88;5036759;28;20039;-67
2023/09/16 10:55:34;;;;;;;2.67;1.65;;;;;;;23.81;31.77;101501.47;5020720;28;20049;-67
2023/09/16 10:58:21;;;;;;;4.03;2.20;;;;;;;23.91;31.91;101484.66;5021082;28;20075;-67
2023/09/16 11:00:54;;;;;;;3.50;2.30;;;;;;;24.39;32.05;101478.59;5021478;28;20041;-67
2023/09/16 11:03:28;;;;;;;4.65;3.72;;;;;;;24.08;33.33;101476.03;5041538;28;20052;-67
2023/09/16 11:05:54;;;;;;;4.57;3.35;;;;;;;23.87;32.90;101477.91;5041717;28;20035;-67
2023/09/16 11:08:20;;;;;;;3.53;2.25;;;;;;;23.88;32.20;101479.56;5021824;28;20041;-67
2023/09/16 11:10:46;;;;;;;5.28;2.63;;;;;;;23.99;32.37;101468.78;5021128;28;20842;-68
2023/09/16 11:13:13;;;;;;;3.72;3.28;;;;;;;23.60;33.06;101468.63;5024451;28;20048;-68
2023/09/16 11:15:41;;;;;;;4.00;3.55;;;;;;;23.23;33.65;101469.09;5027779;28;20107;-67
2023/09/16 11:18:10;;;;;;;5.07;3.38;;;;;;;23.57;33.40;101471.56;5026696;28;20106;-67
2023/09/16 11:20:37;;;;;;;4.10;3.45;;;;;;;24.70;32.55;101465.16;5041351;28;20036;-67
2023/09/16 11:23:06;;;;;;;5.78;3.65;;;;;;;24.55;31.23;101465.59;5033750;28;20037;-68